sensor_id;sensor_type;location;lat;lon;timestamp;pressure;altitude;pressure_sealevel;temperature;humidity
70248;BME280;57641;51.416;5.506;2022-09-30T00:00:07;100885.81;;;11.72;55.88
70248;BME280;57641;51.416;5.506;2022-09-30T00:02:33;100888.66;;;11.71;55.55
70248;BME280;57641;51.416;5.506;2022-09-30T00:04:59;100885.97;;;11.71;55.74
70248;BME280;57641;51.416;5.506;2022-09-30T00:07:24;100886.44;;;11.66;55.62
70248;BME280;57641;51.416;5.506;2022-09-30T00:09:50;100882.44;;;11.62;56.22
70248;BME280;57641;51.416;5.506;2022-09-30T00:12:16;100890.59;;;11.61;56.05
70248;BME280;57641;51.416;5.506;2022-09-30T00:14:43;100894.22;;;11.52;55.75
70248;BME280;57641;51.416;5.506;2022-09-30T00:17:10;100897.19;;;11.49;55.90
70248;BME280;57641;51.416;5.506;2022-09-30T00:19:37;100906.03;;;11.49;55.81
70248;BME280;57641;51.416;5.506;2022-09-30T00:22:05;100897.03;;;11.50;56.05
70248;BME280;57641;51.416;5.506;2022-09-30T00:24:36;100912.56;;;11.47;55.97
70248;BME280;57641;51.416;5.506;2022-09-30T00:27:02;100905.69;;;11.44;56.00
70248;BME280;57641;51.416;5.506;2022-09-30T00:29:28;100905.69;;;11.44;56.19
70248;BME280;57641;51.416;5.506;2022-09-30T00:31:54;100904.81;;;11.35;55.42
70248;BME280;57641;51.416;5.506;2022-09-30T00:34:20;100903.13;;;11.34;56.03
70248;BME280;57641;51.416;5.506;2022-09-30T00:36:48;100906.13;;;11.31;55.80
70248;BME280;57641;51.416;5.506;2022-09-30T00:39:21;100906.94;;;11.32;55.77
70248;BME280;57641;51.416;5.506;2022-09-30T00:41:50;100896.94;;;11.34;55.65
70248;BME280;57641;51.416;5.506;2022-09-30T00:53:17;100908.19;;;11.20;56.42
70248;BME280;57641;51.416;5.506;2022-09-30T00:58:58;100904.97;;;11.16;56.65
70248;BME280;57641;51.416;5.506;2022-09-30T01:01:24;100911.41;;;11.06;55.72
70248;BME280;57641;51.416;5.506;2022-09-30T01:03:56;100906.75;;;11.08;56.75
70248;BME280;57641;51.416;5.506;2022-09-30T01:06:23;100906.91;;;11.06;56.52
70248;BME280;57641;51.416;5.506;2022-09-30T01:08:49;100913.94;;;11.07;56.07
70248;BME280;57641;51.416;5.506;2022-09-30T01:11:16;100912.41;;;11.05;56.83
70248;BME280;57641;51.416;5.506;2022-09-30T01:13:45;100910.56;;;11.05;56.06
70248;BME280;57641;51.416;5.506;2022-09-30T01:16:23;100915.09;;;11.05;55.81
70248;BME280;57641;51.416;5.506;2022-09-30T01:19:17;100911.03;;;11.00;56.74
70248;BME280;57641;51.416;5.506;2022-09-30T01:22:25;100915.16;;;10.95;56.68
70248;BME280;57641;51.416;5.506;2022-09-30T01:31:12;100909.25;;;10.83;57.12
70248;BME280;57641;51.416;5.506;2022-09-30T01:36:43;100907.00;;;10.79;56.00
70248;BME280;57641;51.416;5.506;2022-09-30T01:45:36;100907.09;;;10.69;57.39
70248;BME280;57641;51.416;5.506;2022-09-30T01:48:38;100902.13;;;10.74;56.48
70248;BME280;57641;51.416;5.506;2022-09-30T01:53:55;100905.66;;;10.75;56.83
70248;BME280;57641;51.416;5.506;2022-09-30T01:56:38;100907.41;;;10.66;57.14
70248;BME280;57641;51.416;5.506;2022-09-30T01:59:19;100910.22;;;10.65;57.04
70248;BME280;57641;51.416;5.506;2022-09-30T02:04:54;100905.09;;;10.53;56.82
70248;BME280;57641;51.416;5.506;2022-09-30T02:07:29;100911.97;;;10.56;56.63
70248;BME280;57641;51.416;5.506;2022-09-30T02:10:05;100913.66;;;10.57;57.18
70248;BME280;57641;51.416;5.506;2022-09-30T02:12:38;100915.16;;;10.59;56.85
70248;BME280;57641;51.416;5.506;2022-09-30T02:15:14;100908.16;;;10.58;57.04
70248;BME280;57641;51.416;5.506;2022-09-30T02:17:46;100909.84;;;10.59;56.23
70248;BME280;57641;51.416;5.506;2022-09-30T02:20:19;100910.53;;;10.62;56.10
70248;BME280;57641;51.416;5.506;2022-09-30T02:22:49;100913.03;;;10.63;56.06
70248;BME280;57641;51.416;5.506;2022-09-30T02:25:23;100919.59;;;10.69;56.65
70248;BME280;57641;51.416;5.506;2022-09-30T02:27:56;100911.91;;;10.66;56.97
70248;BME280;57641;51.416;5.506;2022-09-30T02:30:25;100917.22;;;10.66;56.50
70248;BME280;57641;51.416;5.506;2022-09-30T02:32:59;100915.88;;;10.62;55.82
70248;BME280;57641;51.416;5.506;2022-09-30T02:35:35;100918.28;;;10.55;56.63
70248;BME280;57641;51.416;5.506;2022-09-30T02:38:48;100922.09;;;10.52;56.50
70248;BME280;57641;51.416;5.506;2022-09-30T02:41:25;100920.66;;;10.40;55.91
70248;BME280;57641;51.416;5.506;2022-09-30T02:43:54;100921.31;;;10.42;56.39
70248;BME280;57641;51.416;5.506;2022-09-30T02:49:20;100917.97;;;10.40;56.31
70248;BME280;57641;51.416;5.506;2022-09-30T02:57:38;100925.34;;;10.29;56.57
70248;BME280;57641;51.416;5.506;2022-09-30T03:00:09;100925.47;;;10.27;56.51
70248;BME280;57641;51.416;5.506;2022-09-30T03:02:35;100927.16;;;10.28;56.41
70248;BME280;57641;51.416;5.506;2022-09-30T03:05:02;100921.00;;;10.28;56.35
70248;BME280;57641;51.416;5.506;2022-09-30T03:07:28;100921.13;;;10.26;55.74
70248;BME280;57641;51.416;5.506;2022-09-30T03:09:56;100918.34;;;10.28;56.69
70248;BME280;57641;51.416;5.506;2022-09-30T03:12:34;100928.31;;;10.26;56.28
70248;BME280;57641;51.416;5.506;2022-09-30T03:21:26;100924.34;;;10.02;56.92
70248;BME280;57641;51.416;5.506;2022-09-30T03:26:29;100932.78;;;9.98;55.82
70248;BME280;57641;51.416;5.506;2022-09-30T03:39:38;100939.91;;;9.97;56.36
70248;BME280;57641;51.416;5.506;2022-09-30T03:45:09;100947.06;;;9.97;56.39
70248;BME280;57641;51.416;5.506;2022-09-30T03:47:48;100944.72;;;9.94;55.99
70248;BME280;57641;51.416;5.506;2022-09-30T03:50:18;100951.56;;;9.96;56.77
70248;BME280;57641;51.416;5.506;2022-09-30T03:52:46;100944.53;;;9.95;56.13
70248;BME280;57641;51.416;5.506;2022-09-30T03:55:13;100946.63;;;10.01;56.69
70248;BME280;57641;51.416;5.506;2022-09-30T03:57:40;100951.09;;;10.01;56.38
70248;BME280;57641;51.416;5.506;2022-09-30T04:00:07;100956.28;;;10.02;56.61
70248;BME280;57641;51.416;5.506;2022-09-30T04:02:33;100956.44;;;10.01;56.82
70248;BME280;57641;51.416;5.506;2022-09-30T04:05:07;100957.97;;;10.03;57.04
70248;BME280;57641;51.416;5.506;2022-09-30T04:07:33;100962.31;;;10.04;56.25
70248;BME280;57641;51.416;5.506;2022-09-30T04:09:59;100966.81;;;10.04;56.66
70248;BME280;57641;51.416;5.506;2022-09-30T04:12:25;100967.22;;;9.99;55.88
70248;BME280;57641;51.416;5.506;2022-09-30T04:14:51;100975.22;;;9.99;56.71
70248;BME280;57641;51.416;5.506;2022-09-30T04:17:17;100972.84;;;9.96;55.91
70248;BME280;57641;51.416;5.506;2022-09-30T04:19:43;100973.31;;;9.92;55.85
70248;BME280;57641;51.416;5.506;2022-09-30T04:22:09;100989.16;;;9.93;56.87
70248;BME280;57641;51.416;5.506;2022-09-30T04:24:34;100987.59;;;9.91;55.98
70248;BME280;57641;51.416;5.506;2022-09-30T04:27:01;100988.44;;;9.91;56.36
70248;BME280;57641;51.416;5.506;2022-09-30T04:29:27;101000.91;;;9.91;57.08
70248;BME280;57641;51.416;5.506;2022-09-30T04:31:53;101002.06;;;9.88;56.41
70248;BME280;57641;51.416;5.506;2022-09-30T04:34:19;100999.94;;;9.92;56.87
70248;BME280;57641;51.416;5.506;2022-09-30T04:36:44;101000.06;;;9.90;56.73
70248;BME280;57641;51.416;5.506;2022-09-30T04:39:10;100999.78;;;9.93;56.76
70248;BME280;57641;51.416;5.506;2022-09-30T04:41:36;101013.78;;;9.95;57.07
70248;BME280;57641;51.416;5.506;2022-09-30T04:44:03;101009.03;;;9.99;57.68
70248;BME280;57641;51.416;5.506;2022-09-30T04:46:34;101009.44;;;10.04;56.64
70248;BME280;57641;51.416;5.506;2022-09-30T04:49:05;101011.69;;;9.99;56.55
70248;BME280;57641;51.416;5.506;2022-09-30T04:51:31;101017.03;;;9.99;56.85
70248;BME280;57641;51.416;5.506;2022-09-30T04:53:57;101024.31;;;9.97;57.19
70248;BME280;57641;51.416;5.506;2022-09-30T04:56:25;101014.22;;;9.91;56.73
70248;BME280;57641;51.416;5.506;2022-09-30T04:58:52;101023.38;;;9.88;57.12
70248;BME280;57641;51.416;5.506;2022-09-30T05:01:19;101027.97;;;9.86;56.20
70248;BME280;57641;51.416;5.506;2022-09-30T05:03:46;101029.25;;;9.82;56.82
70248;BME280;57641;51.416;5.506;2022-09-30T05:06:11;101038.38;;;9.80;57.06
70248;BME280;57641;51.416;5.506;2022-09-30T05:08:41;101039.34;;;9.79;56.00
70248;BME280;57641;51.416;5.506;2022-09-30T05:11:10;101035.69;;;9.80;56.13
70248;BME280;57641;51.416;5.506;2022-09-30T05:13:39;101036.53;;;9.80;56.39
70248;BME280;57641;51.416;5.506;2022-09-30T05:16:06;101036.69;;;9.79;56.66
70248;BME280;57641;51.416;5.506;2022-09-30T05:18:33;101042.44;;;9.74;55.62
70248;BME280;57641;51.416;5.506;2022-09-30T05:20:59;101044.56;;;9.70;56.45
70248;BME280;57641;51.416;5.506;2022-09-30T05:23:26;101042.03;;;9.69;56.48
70248;BME280;57641;51.416;5.506;2022-09-30T05:25:55;101047.50;;;9.67;55.96
70248;BME280;57641;51.416;5.506;2022-09-30T05:28:22;101052.00;;;9.67;56.74
70248;BME280;57641;51.416;5.506;2022-09-30T05:30:48;101050.19;;;9.67;56.48
70248;BME280;57641;51.416;5.506;2022-09-30T05:33:18;101052.00;;;9.67;56.40
70248;BME280;57641;51.416;5.506;2022-09-30T05:35:43;101049.34;;;9.67;56.73
70248;BME280;57641;51.416;5.506;2022-09-30T05:38:09;101052.00;;;9.67;56.46
70248;BME280;57641;51.416;5.506;2022-09-30T05:40:38;101046.09;;;9.63;56.45
70248;BME280;57641;51.416;5.506;2022-09-30T05:43:05;101049.59;;;9.64;56.20
70248;BME280;57641;51.416;5.506;2022-09-30T05:45:32;101057.59;;;9.64;56.08
70248;BME280;57641;51.416;5.506;2022-09-30T05:47:58;101057.72;;;9.62;56.63
70248;BME280;57641;51.416;5.506;2022-09-30T05:50:24;101071.63;;;9.56;56.90
70248;BME280;57641;51.416;5.506;2022-09-30T05:52:51;101067.16;;;9.57;56.78
70248;BME280;57641;51.416;5.506;2022-09-30T05:55:18;101077.50;;;9.60;56.73
70248;BME280;57641;51.416;5.506;2022-09-30T05:57:49;101081.13;;;9.59;56.49
70248;BME280;57641;51.416;5.506;2022-09-30T06:00:15;101090.81;;;9.60;56.53
70248;BME280;57641;51.416;5.506;2022-09-30T06:02:41;101086.44;;;9.59;57.09
70248;BME280;57641;51.416;5.506;2022-09-30T06:05:08;101090.94;;;9.58;56.44
70248;BME280;57641;51.416;5.506;2022-09-30T06:07:34;101093.34;;;9.61;57.41
70248;BME280;57641;51.416;5.506;2022-09-30T06:10:02;101094.00;;;9.63;57.76
70248;BME280;57641;51.416;5.506;2022-09-30T06:12:27;101099.22;;;9.65;57.75
70248;BME280;57641;51.416;5.506;2022-09-30T06:14:54;101099.75;;;9.68;57.50
70248;BME280;57641;51.416;5.506;2022-09-30T06:17:23;101101.31;;;9.71;57.78
70248;BME280;57641;51.416;5.506;2022-09-30T06:19:49;101103.00;;;9.72;57.49
70248;BME280;57641;51.416;5.506;2022-09-30T06:22:17;101111.41;;;9.77;58.48
70248;BME280;57641;51.416;5.506;2022-09-30T06:24:44;101118.25;;;9.80;58.26
70248;BME280;57641;51.416;5.506;2022-09-30T06:27:14;101111.25;;;9.88;59.23
70248;BME280;57641;51.416;5.506;2022-09-30T06:29:40;101114.88;;;9.97;59.61
70248;BME280;57641;51.416;5.506;2022-09-30T06:32:05;101117.22;;;10.00;60.04
70248;BME280;57641;51.416;5.506;2022-09-30T06:34:36;101113.16;;;10.05;60.37
70248;BME280;57641;51.416;5.506;2022-09-30T06:37:02;101117.38;;;10.08;59.86
70248;BME280;57641;51.416;5.506;2022-09-30T06:39:28;101126.75;;;10.12;60.34
70248;BME280;57641;51.416;5.506;2022-09-30T06:41:56;101132.38;;;10.19;60.60
70248;BME280;57641;51.416;5.506;2022-09-30T06:44:22;101129.28;;;10.23;61.29
70248;BME280;57641;51.416;5.506;2022-09-30T06:46:47;101124.22;;;10.30;61.08
70248;BME280;57641;51.416;5.506;2022-09-30T06:49:13;101122.63;;;10.37;61.49
70248;BME280;57641;51.416;5.506;2022-09-30T06:51:38;101128.25;;;10.43;60.99
70248;BME280;57641;51.416;5.506;2022-09-30T06:54:03;101125.69;;;10.51;61.71
70248;BME280;57641;51.416;5.506;2022-09-30T06:56:29;101123.03;;;10.51;61.74
70248;BME280;57641;51.416;5.506;2022-09-30T06:58:55;101125.66;;;10.61;62.11
70248;BME280;57641;51.416;5.506;2022-09-30T07:01:22;101124.22;;;10.67;62.22
70248;BME280;57641;51.416;5.506;2022-09-30T07:03:49;101127.28;;;10.72;61.50
70248;BME280;57641;51.416;5.506;2022-09-30T07:06:20;101130.22;;;10.78;62.68
70248;BME280;57641;51.416;5.506;2022-09-30T07:08:46;101125.69;;;10.79;62.83
70248;BME280;57641;51.416;5.506;2022-09-30T07:11:11;101126.13;;;10.84;62.23
70248;BME280;57641;51.416;5.506;2022-09-30T07:13:41;101125.66;;;10.88;63.16
70248;BME280;57641;51.416;5.506;2022-09-30T07:16:15;101133.69;;;10.88;63.26
70248;BME280;57641;51.416;5.506;2022-09-30T07:18:44;101122.56;;;10.93;63.25
70248;BME280;57641;51.416;5.506;2022-09-30T07:21:11;101131.94;;;10.97;63.14
70248;BME280;57641;51.416;5.506;2022-09-30T07:23:40;101121.78;;;11.00;63.28
70248;BME280;57641;51.416;5.506;2022-09-30T07:26:14;101126.84;;;11.04;63.28
70248;BME280;57641;51.416;5.506;2022-09-30T07:28:40;101122.19;;;11.06;63.17
70248;BME280;57641;51.416;5.506;2022-09-30T07:31:16;101120.72;;;11.21;63.56
70248;BME280;57641;51.416;5.506;2022-09-30T07:33:46;101124.75;;;11.25;63.88
70248;BME280;57641;51.416;5.506;2022-09-30T07:36:14;101125.41;;;11.27;63.55
70248;BME280;57641;51.416;5.506;2022-09-30T07:38:41;101123.69;;;11.35;64.18
70248;BME280;57641;51.416;5.506;2022-09-30T07:41:10;101122.00;;;11.34;64.82
70248;BME280;57641;51.416;5.506;2022-09-30T07:43:38;101126.97;;;11.47;64.41
70248;BME280;57641;51.416;5.506;2022-09-30T07:46:18;101133.22;;;11.56;64.52
70248;BME280;57641;51.416;5.506;2022-09-30T07:48:49;101136.41;;;11.59;65.28
70248;BME280;57641;51.416;5.506;2022-09-30T07:51:25;101133.66;;;11.69;65.08
70248;BME280;57641;51.416;5.506;2022-09-30T07:53:55;101141.78;;;11.77;65.42
70248;BME280;57641;51.416;5.506;2022-09-30T07:56:22;101132.56;;;11.89;65.17
70248;BME280;57641;51.416;5.506;2022-09-30T07:58:59;101142.31;;;11.98;65.33
70248;BME280;57641;51.416;5.506;2022-09-30T08:01:28;101138.31;;;12.02;65.38
70248;BME280;57641;51.416;5.506;2022-09-30T08:03:58;101138.56;;;12.09;65.46
70248;BME280;57641;51.416;5.506;2022-09-30T08:06:26;101137.09;;;12.14;65.61
70248;BME280;57641;51.416;5.506;2022-09-30T08:08:54;101145.47;;;12.19;65.60
70248;BME280;57641;51.416;5.506;2022-09-30T08:11:20;101137.81;;;12.24;65.74
70248;BME280;57641;51.416;5.506;2022-09-30T08:13:54;101134.75;;;12.37;65.76
70248;BME280;57641;51.416;5.506;2022-09-30T08:16:21;101131.09;;;12.46;66.05
70248;BME280;57641;51.416;5.506;2022-09-30T08:18:47;101138.19;;;12.55;66.10
70248;BME280;57641;51.416;5.506;2022-09-30T08:21:12;101145.41;;;12.63;65.81
70248;BME280;57641;51.416;5.506;2022-09-30T08:23:38;101149.94;;;12.70;66.15
70248;BME280;57641;51.416;5.506;2022-09-30T08:26:06;101144.81;;;12.77;66.28
70248;BME280;57641;51.416;5.506;2022-09-30T08:28:33;101143.19;;;12.84;66.48
70248;BME280;57641;51.416;5.506;2022-09-30T08:31:11;101142.06;;;12.95;66.14
70248;BME280;57641;51.416;5.506;2022-09-30T08:33:38;101142.91;;;12.95;66.60
70248;BME280;57641;51.416;5.506;2022-09-30T08:36:06;101142.91;;;13.03;67.19
70248;BME280;57641;51.416;5.506;2022-09-30T08:38:33;101142.50;;;13.16;67.26
70248;BME280;57641;51.416;5.506;2022-09-30T08:43:55;101146.16;;;13.23;66.71
70248;BME280;57641;51.416;5.506;2022-09-30T08:46:51;101143.84;;;13.28;67.35
70248;BME280;57641;51.416;5.506;2022-09-30T08:52:19;101138.34;;;13.38;67.59
70248;BME280;57641;51.416;5.506;2022-09-30T08:54:49;101138.72;;;13.43;68.12
70248;BME280;57641;51.416;5.506;2022-09-30T08:57:17;101140.56;;;13.59;68.11
70248;BME280;57641;51.416;5.506;2022-09-30T08:59:46;101139.25;;;13.79;68.13
70248;BME280;57641;51.416;5.506;2022-09-30T09:04:56;101140.56;;;14.07;67.57
70248;BME280;57641;51.416;5.506;2022-09-30T09:10:10;101150.44;;;14.31;67.38
70248;BME280;57641;51.416;5.506;2022-09-30T09:13:01;101144.25;;;14.47;67.11
70248;BME280;57641;51.416;5.506;2022-09-30T09:20:32;101121.84;;;14.78;66.95
70248;BME280;57641;51.416;5.506;2022-09-30T09:23:04;101118.25;;;14.94;66.53
70248;BME280;57641;51.416;5.506;2022-09-30T09:25:33;101128.59;;;15.05;66.66
70248;BME280;57641;51.416;5.506;2022-09-30T09:28:01;101142.97;;;15.12;66.46
70248;BME280;57641;51.416;5.506;2022-09-30T09:30:40;101132.69;;;15.24;66.54
70248;BME280;57641;51.416;5.506;2022-09-30T09:33:34;101128.84;;;15.18;66.50
70248;BME280;57641;51.416;5.506;2022-09-30T09:36:34;101129.41;;;15.37;65.97
70248;BME280;57641;51.416;5.506;2022-09-30T09:47:26;101148.38;;;15.66;65.12
70248;BME280;57641;51.416;5.506;2022-09-30T09:49:58;101147.63;;;15.80;64.67
70248;BME280;57641;51.416;5.506;2022-09-30T09:52:49;101140.50;;;15.87;64.00
70248;BME280;57641;51.416;5.506;2022-09-30T09:55:21;101138.34;;;15.83;63.83
70248;BME280;57641;51.416;5.506;2022-09-30T09:57:47;101144.75;;;15.82;63.90
70248;BME280;57641;51.416;5.506;2022-09-30T10:05:36;101125.47;;;16.16;62.57
70248;BME280;57641;51.416;5.506;2022-09-30T10:08:19;101128.06;;;16.24;61.74
70248;BME280;57641;51.416;5.506;2022-09-30T10:10:53;101119.38;;;16.36;61.72
70248;BME280;57641;51.416;5.506;2022-09-30T10:13:30;101120.78;;;16.47;60.98
70248;BME280;57641;51.416;5.506;2022-09-30T10:15:58;101112.22;;;16.58;60.99
70248;BME280;57641;51.416;5.506;2022-09-30T10:18:31;101120.44;;;16.65;59.67
70248;BME280;57641;51.416;5.506;2022-09-30T10:20:59;101122.84;;;16.74;59.49
70248;BME280;57641;51.416;5.506;2022-09-30T10:23:31;101126.44;;;16.81;59.46
70248;BME280;57641;51.416;5.506;2022-09-30T10:28:52;101130.53;;;16.92;57.74
70248;BME280;57641;51.416;5.506;2022-09-30T10:34:07;101138.59;;;17.07;57.55
70248;BME280;57641;51.416;5.506;2022-09-30T10:36:36;101134.78;;;17.16;56.72
70248;BME280;57641;51.416;5.506;2022-09-30T10:39:28;101125.34;;;17.26;55.74
70248;BME280;57641;51.416;5.506;2022-09-30T10:42:14;101122.00;;;17.39;56.43
70248;BME280;57641;51.416;5.506;2022-09-30T10:44:48;101130.19;;;17.31;54.29
70248;BME280;57641;51.416;5.506;2022-09-30T10:47:18;101124.94;;;17.44;53.80
70248;BME280;57641;51.416;5.506;2022-09-30T10:49:50;101126.84;;;17.65;53.98
70248;BME280;57641;51.416;5.506;2022-09-30T10:52:32;101135.88;;;17.79;53.43
70248;BME280;57641;51.416;5.506;2022-09-30T10:55:06;101123.63;;;17.97;53.12
70248;BME280;57641;51.416;5.506;2022-09-30T10:57:35;101130.78;;;18.11;53.56
70248;BME280;57641;51.416;5.506;2022-09-30T11:05:19;101135.91;;;18.55;52.50
70248;BME280;57641;51.416;5.506;2022-09-30T11:08:13;101128.88;;;18.61;52.14
70248;BME280;57641;51.416;5.506;2022-09-30T11:10:55;101129.31;;;18.65;51.73
70248;BME280;57641;51.416;5.506;2022-09-30T11:16:24;101121.91;;;18.52;50.58
70248;BME280;57641;51.416;5.506;2022-09-30T11:21:41;101126.47;;;18.45;51.37
70248;BME280;57641;51.416;5.506;2022-09-30T11:24:17;101118.59;;;18.50;50.86
70248;BME280;57641;51.416;5.506;2022-09-30T11:29:35;101117.75;;;18.49;50.91
70248;BME280;57641;51.416;5.506;2022-09-30T11:43:30;101110.28;;;18.51;50.80
70248;BME280;57641;51.416;5.506;2022-09-30T11:59:21;101089.34;;;18.94;49.93
70248;BME280;57641;51.416;5.506;2022-09-30T12:01:51;101093.56;;;19.10;50.05
70248;BME280;57641;51.416;5.506;2022-09-30T12:04:39;101091.88;;;19.03;48.22
70248;BME280;57641;51.416;5.506;2022-09-30T12:07:17;101099.97;;;18.96;48.99
70248;BME280;57641;51.416;5.506;2022-09-30T12:09:58;101102.03;;;19.01;49.07
70248;BME280;57641;51.416;5.506;2022-09-30T12:12:26;101091.00;;;18.95;49.57
70248;BME280;57641;51.416;5.506;2022-09-30T12:15:01;101092.66;;;18.90;49.87
70248;BME280;57641;51.416;5.506;2022-09-30T12:23:04;101068.34;;;18.90;49.08
70248;BME280;57641;51.416;5.506;2022-09-30T12:25:56;101065.50;;;19.11;48.83
70248;BME280;57641;51.416;5.506;2022-09-30T12:36:56;101056.41;;;19.38;46.77
70248;BME280;57641;51.416;5.506;2022-09-30T12:42:43;101051.88;;;19.46;48.14
70248;BME280;57641;51.416;5.506;2022-09-30T12:48:14;101042.94;;;19.71;48.24
70248;BME280;57641;51.416;5.506;2022-09-30T12:50:53;101049.19;;;19.72;45.20
70248;BME280;57641;51.416;5.506;2022-09-30T12:53:54;101049.19;;;19.72;44.86
70248;BME280;57641;51.416;5.506;2022-09-30T12:56:14;101044.41;;;19.61;45.70
70248;BME280;57641;51.416;5.506;2022-09-30T12:58:43;101050.41;;;19.63;45.65
70248;BME280;57641;51.416;5.506;2022-09-30T13:01:29;101038.56;;;19.70;46.03
70248;BME280;57641;51.416;5.506;2022-09-30T13:06:28;101049.38;;;19.57;45.17
70248;BME280;57641;51.416;5.506;2022-09-30T13:17:21;101039.59;;;19.96;46.53
70248;BME280;57641;51.416;5.506;2022-09-30T13:19:52;101041.88;;;19.99;46.10
70248;BME280;57641;51.416;5.506;2022-09-30T13:27:46;101038.75;;;20.02;46.94
70248;BME280;57641;51.416;5.506;2022-09-30T13:32:38;101033.16;;;19.90;46.30
70248;BME280;57641;51.416;5.506;2022-09-30T13:35:35;101024.81;;;19.92;46.69
70248;BME280;57641;51.416;5.506;2022-09-30T13:43:19;101014.84;;;19.72;45.01
70248;BME280;57641;51.416;5.506;2022-09-30T13:45:55;101004.84;;;19.93;45.63
70248;BME280;57641;51.416;5.506;2022-09-30T13:48:31;101001.91;;;20.01;45.93
70248;BME280;57641;51.416;5.506;2022-09-30T13:50:58;101010.66;;;20.03;44.99
70248;BME280;57641;51.416;5.506;2022-09-30T13:53:46;101001.91;;;20.01;45.63
70248;BME280;57641;51.416;5.506;2022-09-30T13:56:28;101012.09;;;19.99;45.92
70248;BME280;57641;51.416;5.506;2022-09-30T13:59:37;101006.53;;;19.87;45.71
70248;BME280;57641;51.416;5.506;2022-09-30T14:23:43;100975.91;;;19.87;45.56
70248;BME280;57641;51.416;5.506;2022-09-30T14:29:14;100978.81;;;19.92;45.41
70248;BME280;57641;51.416;5.506;2022-09-30T14:31:45;100972.97;;;19.95;46.12
70248;BME280;57641;51.416;5.506;2022-09-30T14:34:14;100979.47;;;19.87;45.49
70248;BME280;57641;51.416;5.506;2022-09-30T14:36:42;100976.31;;;19.90;45.92
70248;BME280;57641;51.416;5.506;2022-09-30T14:39:16;100969.03;;;19.84;45.17
70248;BME280;57641;51.416;5.506;2022-09-30T14:41:52;100976.72;;;19.94;44.69
70248;BME280;57641;51.416;5.506;2022-09-30T14:44:20;100971.50;;;19.99;44.89
70248;BME280;57641;51.416;5.506;2022-09-30T14:46:51;100975.06;;;19.93;43.98
70248;BME280;57641;51.416;5.506;2022-09-30T14:49:25;100972.53;;;20.04;43.97
70248;BME280;57641;51.416;5.506;2022-09-30T14:52:01;100966.50;;;20.09;44.38
70248;BME280;57641;51.416;5.506;2022-09-30T14:54:29;100964.84;;;20.01;44.63
70248;BME280;57641;51.416;5.506;2022-09-30T14:56:57;100960.25;;;20.02;44.70
70248;BME280;57641;51.416;5.506;2022-09-30T14:59:28;100954.03;;;19.95;44.15
70248;BME280;57641;51.416;5.506;2022-09-30T15:02:17;100957.97;;;19.99;44.66
70248;BME280;57641;51.416;5.506;2022-09-30T15:04:55;100954.22;;;20.00;44.92
70248;BME280;57641;51.416;5.506;2022-09-30T15:07:23;100951.53;;;20.00;44.56
70248;BME280;57641;51.416;5.506;2022-09-30T15:09:48;100953.81;;;20.03;44.33
70248;BME280;57641;51.416;5.506;2022-09-30T15:12:18;100949.63;;;20.07;45.05
70248;BME280;57641;51.416;5.506;2022-09-30T15:14:51;100956.72;;;20.08;44.14
70248;BME280;57641;51.416;5.506;2022-09-30T15:17:20;100952.09;;;20.15;44.42
70248;BME280;57641;51.416;5.506;2022-09-30T15:19:48;100948.97;;;20.18;44.57
70248;BME280;57641;51.416;5.506;2022-09-30T15:22:16;100950.19;;;20.22;45.01
70248;BME280;57641;51.416;5.506;2022-09-30T15:24:43;100951.88;;;20.23;44.18
70248;BME280;57641;51.416;5.506;2022-09-30T15:27:19;100954.78;;;20.21;43.60
70248;BME280;57641;51.416;5.506;2022-09-30T15:29:59;100951.88;;;20.16;42.75
70248;BME280;57641;51.416;5.506;2022-09-30T15:32:28;100954.03;;;20.01;42.60
70248;BME280;57641;51.416;5.506;2022-09-30T15:35:02;100951.50;;;20.06;42.99
70248;BME280;57641;51.416;5.506;2022-09-30T15:37:31;100951.94;;;20.03;43.23
70248;BME280;57641;51.416;5.506;2022-09-30T15:39:58;100958.81;;;19.99;42.88
70248;BME280;57641;51.416;5.506;2022-09-30T15:42:59;100954.25;;;19.93;42.74
70248;BME280;57641;51.416;5.506;2022-09-30T15:45:34;100961.56;;;19.93;43.76
70248;BME280;57641;51.416;5.506;2022-09-30T15:50:46;100954.47;;;19.92;43.26
70248;BME280;57641;51.416;5.506;2022-09-30T15:55:49;100963.41;;;19.92;43.70
70248;BME280;57641;51.416;5.506;2022-09-30T15:58:39;100960.69;;;19.99;44.24
70248;BME280;57641;51.416;5.506;2022-09-30T16:01:22;100964.44;;;19.98;43.57
70248;BME280;57641;51.416;5.506;2022-09-30T16:04:02;100967.56;;;19.95;44.19
70248;BME280;57641;51.416;5.506;2022-09-30T16:07:13;100969.03;;;19.84;44.33
70248;BME280;57641;51.416;5.506;2022-09-30T16:09:27;100973.00;;;19.75;44.09
70248;BME280;57641;51.416;5.506;2022-09-30T16:14:53;100965.72;;;19.75;43.97
70248;BME280;57641;51.416;5.506;2022-09-30T16:17:30;100967.59;;;19.75;43.50
70248;BME280;57641;51.416;5.506;2022-09-30T16:19:59;100969.47;;;19.68;43.78
70248;BME280;57641;51.416;5.506;2022-09-30T16:25:15;100967.19;;;19.58;44.41
70248;BME280;57641;51.416;5.506;2022-09-30T16:27:41;100961.38;;;19.48;44.95
70248;BME280;57641;51.416;5.506;2022-09-30T16:30:17;100962.22;;;19.55;44.68
70248;BME280;57641;51.416;5.506;2022-09-30T16:32:46;100958.47;;;19.50;45.33
70248;BME280;57641;51.416;5.506;2022-09-30T16:35:20;100944.91;;;19.43;45.64
70248;BME280;57641;51.416;5.506;2022-09-30T16:37:48;100952.19;;;19.42;45.35
70248;BME280;57641;51.416;5.506;2022-09-30T16:40:23;100945.34;;;19.40;45.67
70248;BME280;57641;51.416;5.506;2022-09-30T16:42:50;100950.94;;;19.32;45.74
70248;BME280;57641;51.416;5.506;2022-09-30T16:45:23;100952.19;;;19.23;46.01
70248;BME280;57641;51.416;5.506;2022-09-30T16:47:49;100948.47;;;19.24;45.99
70248;BME280;57641;51.416;5.506;2022-09-30T16:50:34;100953.25;;;19.22;45.75
70248;BME280;57641;51.416;5.506;2022-09-30T16:53:03;100952.81;;;19.12;46.39